Time;durP1;ratioP1;P1;durP2;ratioP2;P2;SDS_P1;SDS_P2;PMS_P1;PMS_P2;Temp;Humidity;BMP_temperature;BMP_pressure;BME280_temperature;BME280_humidity;BME280_pressure;Samples;Min_cycle;Max_cycle;Signal;HPM_P1;HPM_P2
2022/10/07 00:00:20;;;;;;;;;;;13.90;99.90;;;;;;5092649;28;20423;-77
2022/10/07 00:02:45;;;;;;;;;;;13.90;99.90;;;;;;5093928;28;19912;-76
2022/10/07 00:05:11;;;;;;;;;;;13.90;99.90;;;;;;5094171;28;19908;-76
2022/10/07 00:07:36;;;;;;;;;;;13.90;99.90;;;;;;5093950;28;20380;-76
2022/10/07 00:10:02;;;;;;;;;;;13.80;99.90;;;;;;5092066;28;19916;-76
2022/10/07 00:12:28;;;;;;;;;;;13.90;99.90;;;;;;5094556;28;19912;-76
2022/10/07 00:14:54;;;;;;;;;;;13.90;99.90;;;;;;5093435;28;19912;-76
2022/10/07 00:17:19;;;;;;;;;;;13.90;99.90;;;;;;5093976;28;19908;-76
2022/10/07 00:19:45;;;;;;;;;;;13.90;99.90;;;;;;5093315;28;19908;-76
2022/10/07 00:22:11;;;;;;;;;;;13.80;99.90;;;;;;5093719;28;19995;-76
2022/10/07 00:24:37;;;;;;;;;;;13.80;99.90;;;;;;5093684;28;19939;-77
2022/10/07 00:27:03;;;;;;;;;;;13.90;99.90;;;;;;5092961;28;20481;-77
2022/10/07 00:29:28;;;;;;;;;;;13.80;99.90;;;;;;5093569;28;19913;-76
2022/10/07 00:31:54;;;;;;;;;;;13.90;99.90;;;;;;5093228;28;19962;-75
2022/10/07 00:34:20;;;;;;;;;;;13.90;99.90;;;;;;5093298;28;19920;-76
2022/10/07 00:36:48;;;;;;;;;;;14.00;99.90;;;;;;5092801;28;19912;-75
2022/10/07 00:39:14;;;;;;;;;;;14.00;99.90;;;;;;5093372;28;19967;-77
2022/10/07 00:41:41;;;;;;;;;;;14.10;99.90;;;;;;5093307;28;20285;-76
2022/10/07 00:44:25;;;;;;;;;;;14.10;99.90;;;;;;5092421;28;20037;-75
2022/10/07 00:46:54;;;;;;;;;;;14.10;99.90;;;;;;5092737;28;19919;-76
2022/10/07 00:49:20;;;;;;;;;;;14.10;99.90;;;;;;5093292;28;20253;-75
2022/10/07 00:51:46;;;;;;;;;;;14.00;99.90;;;;;;5092469;28;19912;-76
2022/10/07 00:54:13;;;;;;;;;;;14.00;99.90;;;;;;5092999;28;20003;-75
2022/10/07 00:56:40;;;;;;;;;;;14.00;99.90;;;;;;5093105;28;19915;-76
2022/10/07 00:59:06;;;;;;;;;;;14.00;99.90;;;;;;5092336;28;19908;-76
2022/10/07 01:01:31;;;;;;;;;;;14.00;99.90;;;;;;5092749;28;19915;-76
2022/10/07 01:03:57;;;;;;;;;;;14.00;99.90;;;;;;5093153;28;19915;-76
2022/10/07 01:06:22;;;;;;;;;;;14.00;99.90;;;;;;5092092;28;19915;-75
2022/10/07 01:08:51;;;;;;;;;;;14.00;99.90;;;;;;5092584;28;19935;-76
2022/10/07 01:11:17;;;;;;;;;;;14.00;99.90;;;;;;5093312;28;20010;-76
2022/10/07 01:13:55;;;;;;;;;;;14.00;99.90;;;;;;5093241;28;19993;-77
2022/10/07 01:16:28;;;;;;;;;;;14.00;99.90;;;;;;5093385;28;19994;-75
2022/10/07 01:19:05;;;;;;;;;;;14.00;99.90;;;;;;5092783;28;20253;-76
2022/10/07 01:21:37;;;;;;;;;;;14.00;99.90;;;;;;5093081;28;19954;-76
2022/10/07 01:24:15;;;;;;;;;;;14.00;99.90;;;;;;5092675;28;19908;-75
2022/10/07 01:26:43;;;;;;;;;;;14.10;99.90;;;;;;5093055;28;19916;-75
2022/10/07 01:29:13;;;;;;;;;;;14.20;99.90;;;;;;5092434;28;19919;-75
2022/10/07 01:31:43;;;;;;;;;;;14.20;99.90;;;;;;5093127;28;19912;-76
2022/10/07 01:34:10;;;;;;;;;;;14.20;99.90;;;;;;5092690;28;19915;-76
2022/10/07 01:36:36;;;;;;;;;;;14.20;99.90;;;;;;5093029;28;19995;-76
2022/10/07 01:39:03;;;;;;;;;;;14.20;99.90;;;;;;5092242;28;19908;-76
2022/10/07 01:41:30;;;;;;;;;;;14.20;99.90;;;;;;5092792;28;19915;-76
2022/10/07 01:43:56;;;;;;;;;;;14.30;99.90;;;;;;5092448;28;19973;-75
2022/10/07 01:46:23;;;;;;;;;;;14.30;99.90;;;;;;5092984;28;19915;-76
2022/10/07 01:48:50;;;;;;;;;;;14.20;99.90;;;;;;5092079;28;19918;-75
2022/10/07 01:51:17;;;;;;;;;;;14.20;99.90;;;;;;5092541;28;19922;-75
2022/10/07 01:54:01;;;;;;;;;;;14.20;99.90;;;;;;5092718;28;19965;-76
2022/10/07 01:56:33;;;;;;;;;;;14.20;99.90;;;;;;5092804;28;19912;-75
2022/10/07 01:59:22;;;;;;;;;;;14.10;99.90;;;;;;5092392;28;19957;-76
2022/10/07 02:02:06;;;;;;;;;;;14.10;99.90;;;;;;5085732;28;19912;-75
2022/10/07 02:04:44;;;;;;;;;;;14.00;99.90;;;;;;5091511;28;19908;-75
2022/10/07 02:07:26;;;;;;;;;;;13.90;99.90;;;;;;5090806;28;19916;-76
2022/10/07 02:09:57;;;;;;;;;;;13.90;99.90;;;;;;5092082;28;19951;-75
2022/10/07 02:12:34;;;;;;;;;;;13.90;99.90;;;;;;5092522;28;19908;-76
2022/10/07 02:15:02;;;;;;;;;;;13.90;99.90;;;;;;5090841;28;19915;-75
2022/10/07 02:17:30;;;;;;;;;;;13.90;99.90;;;;;;5092569;28;20388;-77
2022/10/07 02:19:56;;;;;;;;;;;13.90;99.90;;;;;;5092225;28;19908;-76
2022/10/07 02:22:24;;;;;;;;;;;13.90;99.90;;;;;;5096623;28;19908;-76
2022/10/07 02:24:53;;;;;;;;;;;13.90;99.90;;;;;;5096238;28;20273;-75
2022/10/07 02:27:21;;;;;;;;;;;13.90;99.90;;;;;;5096431;28;19969;-76
2022/10/07 02:29:48;;;;;;;;;;;13.90;99.90;;;;;;5096276;28;20401;-76
2022/10/07 02:32:17;;;;;;;;;;;13.90;99.90;;;;;;5096146;28;19908;-76
2022/10/07 02:34:44;;;;;;;;;;;13.90;99.90;;;;;;5096090;28;19912;-76
2022/10/07 02:37:30;;;;;;;;;;;13.90;99.90;;;;;;5095565;28;20420;-76
2022/10/07 02:39:56;;;;;;;;;;;13.90;99.90;;;;;;5095794;28;19912;-76
2022/10/07 02:42:38;;;;;;;;;;;13.90;99.90;;;;;;5095012;28;19912;-76
2022/10/07 02:45:13;;;;;;;;;;;13.90;99.90;;;;;;5095649;28;20085;-76
2022/10/07 02:47:54;;;;;;;;;;;13.90;99.90;;;;;;5094685;28;20353;-76
2022/10/07 02:50:22;;;;;;;;;;;13.90;99.90;;;;;;5096103;28;19918;-76
2022/10/07 02:52:48;;;;;;;;;;;14.00;99.90;;;;;;5095764;28;19912;-76
2022/10/07 02:55:16;;;;;;;;;;;14.00;99.90;;;;;;5095511;28;19915;-76
2022/10/07 02:57:44;;;;;;;;;;;14.00;99.90;;;;;;5095767;28;20230;-76
2022/10/07 03:00:11;;;;;;;;;;;14.00;99.90;;;;;;5095396;28;20422;-76
2022/10/07 03:02:43;;;;;;;;;;;14.00;99.90;;;;;;5096178;28;19919;-76
2022/10/07 03:05:10;;;;;;;;;;;14.00;99.90;;;;;;5095171;28;19909;-76
2022/10/07 03:07:35;;;;;;;;;;;14.00;99.90;;;;;;5095262;28;19998;-76
2022/10/07 03:10:02;;;;;;;;;;;14.00;99.90;;;;;;5095218;28;20010;-76
2022/10/07 03:12:27;;;;;;;;;;;14.00;99.90;;;;;;5095661;28;19915;-76
2022/10/07 03:14:53;;;;;;;;;;;14.00;99.90;;;;;;5095078;28;19908;-76
2022/10/07 03:17:19;;;;;;;;;;;14.10;99.90;;;;;;5095507;28;19971;-76
2022/10/07 03:19:44;;;;;;;;;;;14.10;99.90;;;;;;5095533;28;20362;-77
2022/10/07 03:22:10;;;;;;;;;;;14.10;99.90;;;;;;5094939;28;19959;-76
2022/10/07 03:24:35;;;;;;;;;;;14.10;99.90;;;;;;5095588;28;19908;-77
2022/10/07 03:27:01;;;;;;;;;;;14.10;99.90;;;;;;5094592;28;19908;-75
2022/10/07 03:29:26;;;;;;;;;;;14.10;99.90;;;;;;5094975;28;19912;-75
2022/10/07 03:31:54;;;;;;;;;;;14.10;99.90;;;;;;5094953;28;19919;-77
2022/10/07 03:34:19;;;;;;;;;;;14.10;99.90;;;;;;5094993;28;20357;-77
2022/10/07 03:36:45;;;;;;;;;;;14.20;99.90;;;;;;5094843;28;19950;-75
2022/10/07 03:39:11;;;;;;;;;;;14.10;99.90;;;;;;5094327;28;19915;-75
2022/10/07 03:41:36;;;;;;;;;;;14.10;99.90;;;;;;5095183;28;19980;-76
2022/10/07 03:44:02;;;;;;;;;;;14.10;99.90;;;;;;5094210;28;19920;-74
2022/10/07 03:46:28;;;;;;;;;;;14.20;99.90;;;;;;5095319;28;19912;-77
2022/10/07 03:48:53;;;;;;;;;;;14.10;99.90;;;;;;5094701;28;19920;-75
2022/10/07 03:51:19;;;;;;;;;;;14.10;99.90;;;;;;5094634;28;20002;-75
2022/10/07 03:53:45;;;;;;;;;;;14.20;99.90;;;;;;5095010;28;20005;-75
2022/10/07 03:56:10;;;;;;;;;;;14.20;99.90;;;;;;5094554;28;19909;-75
2022/10/07 03:58:37;;;;;;;;;;;14.20;99.90;;;;;;5095162;28;19918;-76
2022/10/07 04:01:03;;;;;;;;;;;14.20;99.90;;;;;;5094144;28;19934;-76
2022/10/07 04:03:29;;;;;;;;;;;14.20;99.90;;;;;;5094672;28;19912;-75
2022/10/07 04:05:58;;;;;;;;;;;14.20;99.90;;;;;;5094482;28;19908;-75
2022/10/07 04:08:26;;;;;;;;;;;14.10;99.90;;;;;;5094379;28;19912;-76
2022/10/07 04:10:52;;;;;;;;;;;14.10;99.90;;;;;;5094474;28;20333;-76
2022/10/07 04:13:18;;;;;;;;;;;14.00;99.90;;;;;;5093917;28;19921;-75
2022/10/07 04:15:43;;;;;;;;;;;13.90;99.90;;;;;;5093393;28;19998;-76
2022/10/07 04:18:09;;;;;;;;;;;13.90;99.90;;;;;;5093828;28;19930;-75
2022/10/07 04:20:36;;;;;;;;;;;13.80;99.90;;;;;;5094124;28;19915;-75
2022/10/07 04:23:02;;;;;;;;;;;13.80;99.90;;;;;;5093735;28;19953;-75
2022/10/07 04:25:33;;;;;;;;;;;13.80;99.90;;;;;;5092918;28;19908;-76
2022/10/07 04:28:06;;;;;;;;;;;13.80;99.90;;;;;;5093543;28;19918;-76
2022/10/07 04:30:33;;;;;;;;;;;13.90;99.90;;;;;;5094114;28;19926;-78
2022/10/07 04:33:02;;;;;;;;;;;13.90;99.90;;;;;;5093526;28;20249;-75
2022/10/07 04:35:28;;;;;;;;;;;13.90;99.90;;;;;;5093998;28;20008;-76
2022/10/07 04:37:54;;;;;;;;;;;13.90;99.90;;;;;;5094003;28;19908;-76
2022/10/07 04:40:20;;;;;;;;;;;13.90;99.90;;;;;;5093387;28;19965;-77
2022/10/07 04:45:31;;;;;;;;;;;13.90;99.90;;;;;;5094119;28;19982;-77
2022/10/07 04:47:56;;;;;;;;;;;14.00;99.90;;;;;;5093500;28;20368;-77
2022/10/07 04:50:22;;;;;;;;;;;14.00;99.90;;;;;;5093585;28;19938;-77
2022/10/07 04:52:47;;;;;;;;;;;14.10;99.90;;;;;;5093637;28;19994;-77
2022/10/07 04:55:13;;;;;;;;;;;14.20;99.90;;;;;;5093166;28;19958;-76
2022/10/07 04:57:39;;;;;;;;;;;14.30;99.90;;;;;;5093771;28;19920;-77
2022/10/07 05:00:05;;;;;;;;;;;14.30;99.90;;;;;;5093124;28;19908;-76
2022/10/07 05:02:31;;;;;;;;;;;14.30;99.90;;;;;;5093332;28;19995;-77
2022/10/07 05:04:56;;;;;;;;;;;14.30;99.90;;;;;;5093530;28;20012;-78
2022/10/07 05:07:22;;;;;;;;;;;14.40;99.90;;;;;;5092568;28;19915;-76
2022/10/07 05:09:48;;;;;;;;;;;14.30;99.90;;;;;;5093389;28;20373;-77
2022/10/07 05:12:16;;;;;;;;;;;14.30;99.90;;;;;;5092879;28;19915;-78
2022/10/07 05:14:42;;;;;;;;;;;14.30;99.90;;;;;;5093290;28;19960;-77
2022/10/07 05:17:08;;;;;;;;;;;14.40;99.90;;;;;;5092796;28;20353;-77
2022/10/07 05:19:34;;;;;;;;;;;14.40;99.90;;;;;;5093330;28;19915;-77
2022/10/07 05:22:00;;;;;;;;;;;14.40;99.90;;;;;;5093198;28;19908;-76
2022/10/07 05:24:25;;;;;;;;;;;14.50;99.90;;;;;;5092901;28;19930;-77
2022/10/07 05:26:51;;;;;;;;;;;14.40;99.90;;;;;;5093137;28;19993;-76
2022/10/07 05:29:16;;;;;;;;;;;14.40;99.90;;;;;;5092495;28;19912;-76
2022/10/07 05:31:42;;;;;;;;;;;14.40;99.90;;;;;;5093138;28;19965;-76
2022/10/07 05:34:08;;;;;;;;;;;14.40;99.90;;;;;;5092513;28;19916;-77
2022/10/07 05:36:33;;;;;;;;;;;14.30;99.90;;;;;;5093104;28;19908;-76
2022/10/07 05:38:59;;;;;;;;;;;14.30;99.90;;;;;;5092650;28;19995;-76
2022/10/07 05:41:27;;;;;;;;;;;14.40;99.90;;;;;;5092422;28;19912;-76
2022/10/07 05:43:52;;;;;;;;;;;14.40;99.90;;;;;;5093033;28;19943;-76
2022/10/07 05:46:22;;;;;;;;;;;14.40;99.90;;;;;;5092709;28;20346;-75
2022/10/07 05:48:50;;;;;;;;;;;14.30;99.90;;;;;;5092815;28;19912;-76
2022/10/07 05:51:16;;;;;;;;;;;14.30;99.90;;;;;;5092288;28;19912;-77
2022/10/07 05:53:41;;;;;;;;;;;14.20;99.90;;;;;;5092631;28;19977;-77
2022/10/07 05:56:11;;;;;;;;;;;14.20;99.90;;;;;;5094631;28;19915;-75
2022/10/07 05:58:37;;;;;;;;;;;14.20;99.90;;;;;;5096629;28;20365;-77
2022/10/07 06:01:05;;;;;;;;;;;14.20;99.90;;;;;;5096921;28;19908;-76
2022/10/07 06:03:32;;;;;;;;;;;14.10;99.90;;;;;;5096940;28;19915;-76
2022/10/07 06:05:58;;;;;;;;;;;14.10;99.90;;;;;;5096812;28;19916;-78
2022/10/07 06:08:24;;;;;;;;;;;14.10;99.90;;;;;;5096224;28;19907;-77
2022/10/07 06:13:34;;;;;;;;;;;14.10;99.90;;;;;;5096608;28;19931;-76
2022/10/07 06:16:07;;;;;;;;;;;14.10;99.90;;;;;;5096791;28;19962;-77
2022/10/07 06:18:36;;;;;;;;;;;14.10;99.90;;;;;;5096159;28;19947;-77
2022/10/07 06:21:01;;;;;;;;;;;14.10;99.90;;;;;;5096629;28;20300;-77
2022/10/07 06:23:27;;;;;;;;;;;14.20;99.90;;;;;;5096047;28;19915;-76
2022/10/07 06:26:00;;;;;;;;;;;14.10;99.90;;;;;;5096605;28;20265;-76
2022/10/07 06:28:31;;;;;;;;;;;14.10;99.90;;;;;;5095802;28;19973;-78
2022/10/07 06:30:56;;;;;;;;;;;14.20;99.90;;;;;;5096407;28;19916;-81
2022/10/07 06:33:22;;;;;;;;;;;14.00;99.90;;;;;;5095804;28;19908;-81
2022/10/07 06:35:47;;;;;;;;;;;13.90;99.90;;;;;;5094997;28;19909;-81
2022/10/07 06:38:13;;;;;;;;;;;13.60;99.90;;;;;;5095713;28;19962;-80
2022/10/07 06:40:38;;;;;;;;;;;13.30;99.90;;;;;;5096057;28;19908;-80
2022/10/07 06:43:04;;;;;;;;;;;13.10;99.90;;;;;;5095700;28;19920;-80
2022/10/07 06:45:31;;;;;;;;;;;12.90;99.90;;;;;;5095550;28;20010;-80
2022/10/07 06:47:56;;;;;;;;;;;12.80;99.90;;;;;;5096017;28;19923;-79
2022/10/07 06:50:22;;;;;;;;;;;12.60;99.90;;;;;;5095490;28;19912;-76
2022/10/07 06:52:48;;;;;;;;;;;12.60;99.90;;;;;;5095921;28;20265;-76
2022/10/07 06:55:13;;;;;;;;;;;12.40;99.90;;;;;;5095154;28;19999;-76
2022/10/07 06:57:40;;;;;;;;;;;12.40;99.90;;;;;;5095820;28;19912;-75
2022/10/07 07:00:06;;;;;;;;;;;12.30;99.90;;;;;;5095476;28;20288;-75
2022/10/07 07:02:32;;;;;;;;;;;12.20;99.90;;;;;;5094013;28;19999;-75
2022/10/07 07:04:57;;;;;;;;;;;12.10;99.90;;;;;;5095494;28;19914;-75
2022/10/07 07:07:23;;;;;;;;;;;12.10;99.90;;;;;;5094690;28;20268;-76
2022/10/07 07:09:49;;;;;;;;;;;12.10;99.90;;;;;;5095627;28;19958;-76
2022/10/07 07:12:15;;;;;;;;;;;12.10;99.90;;;;;;5094975;28;20303;-76
2022/10/07 07:14:43;;;;;;;;;;;12.10;99.90;;;;;;5095338;28;19912;-76
2022/10/07 07:17:09;;;;;;;;;;;12.10;99.90;;;;;;5094901;28;20281;-76
2022/10/07 07:19:35;;;;;;;;;;;12.00;99.90;;;;;;5095229;28;20410;-76
2022/10/07 07:22:01;;;;;;;;;;;12.00;99.90;;;;;;5095355;28;19908;-76
2022/10/07 07:24:26;;;;;;;;;;;12.00;99.90;;;;;;5095040;28;19919;-76
2022/10/07 07:26:52;;;;;;;;;;;12.00;99.90;;;;;;5095527;28;19991;-75
2022/10/07 07:29:17;;;;;;;;;;;12.00;99.90;;;;;;5094539;28;19912;-75
2022/10/07 07:31:43;;;;;;;;;;;12.10;99.90;;;;;;5095153;28;20372;-75
2022/10/07 07:34:12;;;;;;;;;;;12.10;99.90;;;;;;5095445;28;19908;-75
2022/10/07 07:36:41;;;;;;;;;;;12.20;99.90;;;;;;5095198;28;19961;-74
2022/10/07 07:39:08;;;;;;;;;;;12.30;99.90;;;;;;5094787;28;19912;-75
2022/10/07 07:41:35;;;;;;;;;;;12.40;99.90;;;;;;5094468;28;19916;-75
2022/10/07 07:44:02;;;;;;;;;;;12.40;99.90;;;;;;5094757;28;19920;-75
2022/10/07 07:46:35;;;;;;;;;;;12.40;99.90;;;;;;5094426;28;20042;-76
2022/10/07 07:49:01;;;;;;;;;;;12.40;99.90;;;;;;5094880;28;19985;-75
2022/10/07 07:51:26;;;;;;;;;;;12.30;99.90;;;;;;5094177;28;19923;-75
2022/10/07 07:53:52;;;;;;;;;;;12.30;99.90;;;;;;5094732;28;19995;-75
2022/10/07 07:56:18;;;;;;;;;;;12.30;99.90;;;;;;5093962;28;19962;-76
2022/10/07 07:58:44;;;;;;;;;;;12.40;99.90;;;;;;5094346;28;19912;-74
2022/10/07 08:01:15;;;;;;;;;;;12.40;99.90;;;;;;5094593;28;19922;-75
2022/10/07 08:03:47;;;;;;;;;;;12.40;99.90;;;;;;5093362;28;19915;-75
2022/10/07 08:06:14;;;;;;;;;;;12.50;99.90;;;;;;5094104;28;19908;-75
2022/10/07 08:08:42;;;;;;;;;;;12.70;99.90;;;;;;5093043;28;20337;-75
2022/10/07 08:11:09;;;;;;;;;;;12.70;99.90;;;;;;5094044;28;20324;-74
2022/10/07 08:13:35;;;;;;;;;;;12.90;99.90;;;;;;5094071;28;20272;-74
2022/10/07 08:16:02;;;;;;;;;;;12.90;99.90;;;;;;5094312;28;19999;-74
2022/10/07 08:18:28;;;;;;;;;;;13.00;99.90;;;;;;5092655;28;20006;-76
2022/10/07 08:20:57;;;;;;;;;;;13.10;99.90;;;;;;5094452;28;19996;-76
2022/10/07 08:23:25;;;;;;;;;;;13.10;99.90;;;;;;5093606;28;19915;-75
2022/10/07 08:25:54;;;;;;;;;;;13.10;99.90;;;;;;5092893;28;19908;-75
2022/10/07 08:28:20;;;;;;;;;;;13.10;99.90;;;;;;5093601;28;19912;-74
2022/10/07 08:30:45;;;;;;;;;;;13.10;99.90;;;;;;5094031;28;19918;-74
2022/10/07 08:33:11;;;;;;;;;;;13.00;99.90;;;;;;5093864;28;19912;-75
2022/10/07 08:35:36;;;;;;;;;;;13.10;99.90;;;;;;5093434;28;20367;-75
2022/10/07 08:38:02;;;;;;;;;;;13.10;99.90;;;;;;5093678;28;19909;-75
2022/10/07 08:40:28;;;;;;;;;;;13.20;99.90;;;;;;5093267;28;19914;-76
2022/10/07 08:42:54;;;;;;;;;;;13.20;99.90;;;;;;5093518;28;19924;-75
2022/10/07 08:45:26;;;;;;;;;;;13.20;99.90;;;;;;5092894;28;19908;-75
2022/10/07 08:47:55;;;;;;;;;;;13.40;99.90;;;;;;5092925;28;19912;-76
2022/10/07 08:50:24;;;;;;;;;;;13.40;99.90;;;;;;5092897;28;19912;-75
2022/10/07 08:52:51;;;;;;;;;;;13.40;99.90;;;;;;5092047;28;19990;-75
2022/10/07 08:55:20;;;;;;;;;;;13.50;99.90;;;;;;5092901;28;19919;-75
2022/10/07 08:57:49;;;;;;;;;;;13.60;99.90;;;;;;5093432;28;19968;-76
2022/10/07 09:00:16;;;;;;;;;;;13.70;99.90;;;;;;5092923;28;19912;-75
2022/10/07 09:02:54;;;;;;;;;;;13.70;99.90;;;;;;5093112;28;19915;-75
2022/10/07 09:05:22;;;;;;;;;;;13.60;99.90;;;;;;5092869;28;19908;-75
2022/10/07 09:07:53;;;;;;;;;;;13.60;99.90;;;;;;5093352;28;19912;-76
2022/10/07 09:10:31;;;;;;;;;;;13.60;99.90;;;;;;5092855;28;20002;-75
2022/10/07 09:13:06;;;;;;;;;;;13.70;99.90;;;;;;5093253;28;19912;-75
2022/10/07 09:15:37;;;;;;;;;;;13.70;99.90;;;;;;5093220;28;19977;-75
2022/10/07 09:18:09;;;;;;;;;;;13.90;99.90;;;;;;5093340;28;19911;-76
2022/10/07 09:20:38;;;;;;;;;;;13.90;99.90;;;;;;5092774;28;19908;-76
2022/10/07 09:23:04;;;;;;;;;;;13.90;99.90;;;;;;5092196;28;20258;-76
2022/10/07 09:25:30;;;;;;;;;;;13.90;99.90;;;;;;5092429;28;19966;-75
2022/10/07 09:27:56;;;;;;;;;;;13.80;99.90;;;;;;5091619;28;19955;-75
2022/10/07 09:30:22;;;;;;;;;;;13.90;99.90;;;;;;5092215;28;19965;-75
2022/10/07 09:32:49;;;;;;;;;;;13.90;99.90;;;;;;5093084;28;19908;-75
2022/10/07 09:35:16;;;;;;;;;;;14.00;99.90;;;;;;5092725;28;19951;-76
2022/10/07 09:38:08;;;;;;;;;;;14.00;99.90;;;;;;5092625;28;20379;-75
2022/10/07 09:40:33;;;;;;;;;;;14.10;99.90;;;;;;5090368;28;20319;-76
2022/10/07 09:43:00;;;;;;;;;;;14.10;99.90;;;;;;5092587;28;19920;-75
2022/10/07 09:45:25;;;;;;;;;;;14.10;99.90;;;;;;5092564;28;19908;-76
2022/10/07 09:47:52;;;;;;;;;;;14.10;99.90;;;;;;5092845;28;19934;-75
2022/10/07 09:50:36;;;;;;;;;;;14.10;99.90;;;;;;5092904;28;19912;-75
2022/10/07 09:53:03;;;;;;;;;;;14.20;99.90;;;;;;5092893;28;19908;-75
2022/10/07 09:55:33;;;;;;;;;;;14.20;99.90;;;;;;5092248;28;19908;-75
2022/10/07 09:58:00;;;;;;;;;;;14.20;99.90;;;;;;5093045;28;19950;-75
2022/10/07 10:00:26;;;;;;;;;;;14.30;99.90;;;;;;5092391;28;19908;-75
2022/10/07 10:02:59;;;;;;;;;;;14.30;99.90;;;;;;5093075;28;19976;-76
2022/10/07 10:05:29;;;;;;;;;;;14.40;99.90;;;;;;5092372;28;19916;-75
2022/10/07 10:07:56;;;;;;;;;;;14.50;99.90;;;;;;5092678;28;20077;-75
2022/10/07 10:10:23;;;;;;;;;;;14.50;99.90;;;;;;5092339;28;19951;-76
2022/10/07 10:12:51;;;;;;;;;;;14.60;99.90;;;;;;5092584;28;20375;-75
2022/10/07 10:15:22;;;;;;;;;;;14.50;99.90;;;;;;5091543;28;19918;-77
2022/10/07 10:17:48;;;;;;;;;;;14.50;99.90;;;;;;5092427;28;19912;-76
2022/10/07 10:20:17;;;;;;;;;;;14.50;99.90;;;;;;5092701;28;19908;-75
2022/10/07 10:22:42;;;;;;;;;;;14.50;99.90;;;;;;5091809;28;20286;-75
2022/10/07 10:28:01;;;;;;;;;;;14.60;99.90;;;;;;5092319;28;19919;-77
2022/10/07 10:30:29;;;;;;;;;;;14.70;99.90;;;;;;5092113;28;19973;-75
2022/10/07 10:33:06;;;;;;;;;;;14.90;99.90;;;;;;5092495;28;19908;-76
2022/10/07 10:35:45;;;;;;;;;;;14.90;99.90;;;;;;5091961;28;19908;-75
2022/10/07 10:38:11;;;;;;;;;;;15.00;99.90;;;;;;5092501;28;19970;-75
2022/10/07 10:40:39;;;;;;;;;;;14.90;99.90;;;;;;5091767;28;19916;-75
2022/10/07 10:43:08;;;;;;;;;;;14.80;99.90;;;;;;5095848;28;20007;-76
2022/10/07 10:45:53;;;;;;;;;;;14.80;99.90;;;;;;5094290;28;20041;-75
2022/10/07 10:48:18;;;;;;;;;;;14.80;99.90;;;;;;5095850;28;20418;-76
2022/10/07 10:50:52;;;;;;;;;;;14.80;99.90;;;;;;5095556;28;19920;-76
2022/10/07 10:53:20;;;;;;;;;;;14.90;99.90;;;;;;5096045;28;19916;-75
2022/10/07 10:56:06;;;;;;;;;;;15.10;99.90;;;;;;5095410;28;20006;-75
2022/10/07 10:58:45;;;;;;;;;;;15.30;99.90;;;;;;5063324;28;20281;-76
2022/10/07 11:01:14;;;;;;;;;;;15.30;99.90;;;;;;5095879;28;19908;-76
2022/10/07 11:03:39;;;;;;;;;;;15.20;99.90;;;;;;5095298;28;19915;-76
2022/10/07 11:06:07;;;;;;;;;;;15.10;99.90;;;;;;5095260;28;19908;-76
2022/10/07 11:08:35;;;;;;;;;;;15.10;99.90;;;;;;5095200;28;19916;-75
2022/10/07 11:11:00;;;;;;;;;;;14.90;99.90;;;;;;5095364;28;19918;-75
2022/10/07 11:13:45;;;;;;;;;;;14.80;99.90;;;;;;5094814;28;20264;-75
2022/10/07 11:16:29;;;;;;;;;;;14.80;99.90;;;;;;5095422;28;19912;-75
2022/10/07 11:18:55;;;;;;;;;;;14.70;99.90;;;;;;5094529;28;19908;-75
2022/10/07 11:21:23;;;;;;;;;;;14.70;99.90;;;;;;5095588;28;19914;-76
2022/10/07 11:23:56;;;;;;;;;;;14.60;99.90;;;;;;5095433;28;19908;-76
2022/10/07 11:26:42;;;;;;;;;;;14.60;99.90;;;;;;5095442;28;19909;-77
2022/10/07 11:29:28;;;;;;;;;;;14.70;99.90;;;;;;5094856;28;19912;-75
2022/10/07 11:32:03;;;;;;;;;;;14.80;99.90;;;;;;5094686;28;20273;-76
2022/10/07 11:34:37;;;;;;;;;;;15.00;99.90;;;;;;5094664;28;20014;-76
2022/10/07 11:37:07;;;;;;;;;;;15.00;99.90;;;;;;5095350;28;19991;-76
2022/10/07 11:39:35;;;;;;;;;;;15.10;99.90;;;;;;5094221;28;19920;-75
2022/10/07 11:42:07;;;;;;;;;;;15.20;99.90;;;;;;5094524;28;19908;-76
2022/10/07 11:44:38;;;;;;;;;;;15.20;99.90;;;;;;5089732;28;19920;-76
2022/10/07 11:47:08;;;;;;;;;;;15.10;99.90;;;;;;5094799;28;19909;-76
2022/10/07 11:49:37;;;;;;;;;;;15.00;99.90;;;;;;5091423;28;19916;-76
2022/10/07 11:52:08;;;;;;;;;;;14.90;99.90;;;;;;5085191;28;19912;-76
2022/10/07 11:54:49;;;;;;;;;;;14.80;99.90;;;;;;5074031;28;20313;-76
2022/10/07 11:57:23;;;;;;;;;;;14.80;99.90;;;;;;5074520;28;20381;-76
2022/10/07 11:59:57;;;;;;;;;;;14.70;99.90;;;;;;5079008;28;19912;-76
2022/10/07 12:02:28;;;;;;;;;;;14.70;99.90;;;;;;5091836;28;19908;-76
2022/10/07 12:04:54;;;;;;;;;;;14.70;99.90;;;;;;5094034;28;20361;-76
2022/10/07 12:07:38;;;;;;;;;;;14.60;99.90;;;;;;5094459;28;19998;-76
2022/10/07 12:10:24;;;;;;;;;;;14.60;99.90;;;;;;5094411;28;19923;-75
2022/10/07 12:12:51;;;;;;;;;;;14.70;99.90;;;;;;5093820;28;19986;-75
2022/10/07 12:15:26;;;;;;;;;;;14.60;99.90;;;;;;5094330;28;19963;-76
2022/10/07 12:17:52;;;;;;;;;;;14.60;99.90;;;;;;5093560;28;20367;-76
2022/10/07 12:20:33;;;;;;;;;;;14.60;99.90;;;;;;5094523;28;19908;-76
2022/10/07 12:23:27;;;;;;;;;;;14.60;99.90;;;;;;5095649;28;19908;-76
2022/10/07 12:26:00;;;;;;;;;;;14.60;99.90;;;;;;5094289;28;20277;-76
2022/10/07 12:28:25;;;;;;;;;;;14.70;99.90;;;;;;5093839;28;19919;-76
2022/10/07 12:30:54;;;;;;;;;;;14.70;99.90;;;;;;5093680;28;19999;-75
2022/10/07 12:33:26;;;;;;;;;;;14.70;99.90;;;;;;5092854;28;19958;-76
2022/10/07 12:35:52;;;;;;;;;;;14.70;99.90;;;;;;5092816;28;19908;-75
2022/10/07 12:38:19;;;;;;;;;;;14.80;99.90;;;;;;5093917;28;19915;-76
2022/10/07 12:40:51;;;;;;;;;;;14.90;99.90;;;;;;5092835;28;20365;-76
2022/10/07 12:43:44;;;;;;;;;;;15.00;99.90;;;;;;5092726;28;19930;-76
2022/10/07 12:46:11;;;;;;;;;;;15.10;99.90;;;;;;5091878;28;20292;-76
2022/10/07 12:48:43;;;;;;;;;;;15.10;99.90;;;;;;5092807;28;20011;-75
2022/10/07 12:51:22;;;;;;;;;;;15.00;99.90;;;;;;5092996;28;20467;-76
2022/10/07 12:53:49;;;;;;;;;;;15.00;99.90;;;;;;5093577;28;19908;-76
2022/10/07 12:56:20;;;;;;;;;;;14.80;99.90;;;;;;5093882;28;19908;-76
2022/10/07 13:02:22;;;;;;;;;;;14.80;99.90;;;;;;5082175;28;19916;-75
2022/10/07 13:05:04;;;;;;;;;;;14.90;99.90;;;;;;5090149;28;19908;-75
2022/10/07 13:07:35;;;;;;;;;;;14.90;99.90;;;;;;5093548;28;19908;-75
2022/10/07 13:10:14;;;;;;;;;;;15.00;99.90;;;;;;5093537;28;19923;-76
2022/10/07 13:12:49;;;;;;;;;;;15.00;99.90;;;;;;5092939;28;19954;-75
2022/10/07 13:15:27;;;;;;;;;;;14.90;99.90;;;;;;5093232;28;19931;-77
2022/10/07 13:18:05;;;;;;;;;;;14.70;99.90;;;;;;5092715;28;19995;-76
2022/10/07 13:20:46;;;;;;;;;;;14.60;99.90;;;;;;5093357;28;19908;-76
2022/10/07 13:23:14;;;;;;;;;;;14.50;99.90;;;;;;5093336;28;19908;-75
2022/10/07 13:25:44;;;;;;;;;;;14.40;99.90;;;;;;5092510;28;19908;-75
2022/10/07 13:28:15;;;;;;;;;;;14.50;99.90;;;;;;5093201;28;19912;-75
2022/10/07 13:30:42;;;;;;;;;;;14.50;99.90;;;;;;5092625;28;19937;-76
2022/10/07 13:33:22;;;;;;;;;;;14.60;99.90;;;;;;5093019;28;19908;-76
2022/10/07 13:35:48;;;;;;;;;;;14.60;99.90;;;;;;5092585;28;20017;-76
2022/10/07 13:38:20;;;;;;;;;;;14.50;99.90;;;;;;5093039;28;19915;-76
2022/10/07 13:41:00;;;;;;;;;;;14.30;99.90;;;;;;5092373;28;20308;-76
2022/10/07 13:43:28;;;;;;;;;;;14.20;99.90;;;;;;5092774;28;19942;-74
2022/10/07 13:45:55;;;;;;;;;;;14.00;99.90;;;;;;5091727;28;19912;-75
2022/10/07 13:48:22;;;;;;;;;;;13.70;99.90;;;;;;5092389;28;20101;-75
2022/10/07 13:50:49;;;;;;;;;;;13.50;99.90;;;;;;5092244;28;19919;-75
2022/10/07 13:53:29;;;;;;;;;;;13.30;99.90;;;;;;5092722;28;19908;-76
2022/10/07 13:56:07;;;;;;;;;;;13.20;99.90;;;;;;5092042;28;20030;-76
2022/10/07 13:58:33;;;;;;;;;;;13.10;99.90;;;;;;5092278;28;20253;-75
2022/10/07 14:01:01;;;;;;;;;;;13.10;99.90;;;;;;5092111;28;20023;-76
2022/10/07 14:03:27;;;;;;;;;;;13.20;99.90;;;;;;5092428;28;19947;-76
2022/10/07 14:05:52;;;;;;;;;;;13.30;99.90;;;;;;5090622;28;19908;-75
2022/10/07 14:08:20;;;;;;;;;;;13.20;99.90;;;;;;5092369;28;19912;-75
2022/10/07 14:10:52;;;;;;;;;;;13.30;99.90;;;;;;5091855;28;19944;-75
2022/10/07 14:13:18;;;;;;;;;;;13.30;99.90;;;;;;5092794;28;19963;-74
2022/10/07 14:15:46;;;;;;;;;;;13.30;99.90;;;;;;5091510;28;19947;-74
2022/10/07 14:18:13;;;;;;;;;;;13.20;99.90;;;;;;5095876;28;19912;-75
2022/10/07 14:20:42;;;;;;;;;;;13.30;99.90;;;;;;5094212;28;19909;-75
2022/10/07 14:23:29;;;;;;;;;;;13.40;99.90;;;;;;5095822;28;19908;-75
2022/10/07 14:26:23;;;;;;;;;;;13.50;99.90;;;;;;5093749;28;19915;-76
2022/10/07 14:28:49;;;;;;;;;;;13.60;99.90;;;;;;5093072;28;19916;-74
2022/10/07 14:37:22;;;;;;;;;;;13.90;99.90;;;;;;5096018;28;19915;-75
2022/10/07 14:39:49;;;;;;;;;;;13.90;99.90;;;;;;5095783;28;19908;-75
2022/10/07 14:42:21;;;;;;;;;;;13.90;99.90;;;;;;5096197;28;19912;-76
2022/10/07 14:44:47;;;;;;;;;;;13.90;99.90;;;;;;5096004;28;19924;-77